createdAt,value
2019-06-20T00:03:21.789Z,54.00
2019-06-20T00:05:54.480Z,54.58
2019-06-20T00:08:24.737Z,54.65
2019-06-20T00:10:55.018Z,54.26
2019-06-20T00:13:25.344Z,53.95
2019-06-20T00:15:55.594Z,54.56
2019-06-20T00:18:26.207Z,54.63
2019-06-20T00:20:56.596Z,54.54
2019-06-20T00:23:27.822Z,54.36
2019-06-20T00:25:58.200Z,54.38
2019-06-20T00:28:29.659Z,54.34
2019-06-20T00:30:59.952Z,54.41
2019-06-20T00:33:30.680Z,54.54
2019-06-20T00:36:00.915Z,54.62
2019-06-20T00:38:31.254Z,54.40
2019-06-20T00:41:01.508Z,54.29
2019-06-20T00:43:31.835Z,54.43
2019-06-20T00:46:02.060Z,54.79
2019-06-20T00:48:39.443Z,54.79
2019-06-20T00:51:09.694Z,55.04
2019-06-20T00:53:39.905Z,55.26
2019-06-20T00:56:10.213Z,55.77
2019-06-20T00:58:40.557Z,55.73
2019-06-20T01:01:19.207Z,55.70
2019-06-20T01:03:49.430Z,55.34
2019-06-20T01:06:19.738Z,56.27
2019-06-20T01:08:49.998Z,56.06
2019-06-20T01:11:20.261Z,56.15
2019-06-20T01:13:52.859Z,56.46
2019-06-20T01:16:23.096Z,56.42
2019-06-20T01:18:53.597Z,56.92
2019-06-20T01:21:24.073Z,57.35
2019-06-20T01:23:54.425Z,57.77
2019-06-20T01:26:24.655Z,58.12
2019-06-20T01:28:55.254Z,58.44
2019-06-20T01:31:25.660Z,58.99
2019-06-20T01:33:55.979Z,59.16
2019-06-20T01:36:26.248Z,59.25
2019-06-20T01:38:56.514Z,59.27
2019-06-20T01:41:27.322Z,59.70
2019-06-20T01:43:57.695Z,59.24
2019-06-20T01:46:28.017Z,59.68
2019-06-20T01:48:58.483Z,59.55
2019-06-20T01:51:29.007Z,59.49
2019-06-20T01:53:59.415Z,59.79
2019-06-20T01:56:33.434Z,59.81
2019-06-20T01:59:03.706Z,60.25
2019-06-20T02:01:34.026Z,60.28
2019-06-20T02:04:04.266Z,60.19
2019-06-20T02:06:34.534Z,59.66
2019-06-20T02:09:11.931Z,59.72
2019-06-20T02:11:42.290Z,59.74
2019-06-20T02:14:12.567Z,59.56
2019-06-20T02:16:42.983Z,59.36
2019-06-20T02:19:13.295Z,59.72
2019-06-20T02:21:43.615Z,59.44
2019-06-20T02:24:17.945Z,59.42
2019-06-20T02:26:48.312Z,59.77
2019-06-20T02:29:18.717Z,59.46
2019-06-20T02:31:48.921Z,59.86
2019-06-20T02:34:19.259Z,59.59
2019-06-20T02:36:50.583Z,59.64
2019-06-20T02:39:21.003Z,59.46
2019-06-20T02:41:51.335Z,59.62
2019-06-20T02:44:30.044Z,59.77
2019-06-20T02:46:53.882Z,59.61
2019-06-20T02:49:24.143Z,60.00
2019-06-20T02:51:54.411Z,60.08
2019-06-20T02:54:25.106Z,59.91
2019-06-20T02:56:55.722Z,59.67
2019-06-20T02:59:25.963Z,59.54
2019-06-20T03:01:56.362Z,59.57
2019-06-20T03:04:26.689Z,58.64
2019-06-20T03:06:57.071Z,58.27
2019-06-20T03:09:27.711Z,58.45
2019-06-20T03:11:58.217Z,58.02
2019-06-20T03:14:44.295Z,57.70
2019-06-20T03:17:00.454Z,57.07
2019-06-20T03:19:30.789Z,57.19
2019-06-20T03:22:03.462Z,57.38
2019-06-20T03:24:35.205Z,57.64
2019-06-20T03:27:05.653Z,58.12
2019-06-20T03:29:36.046Z,58.84
2019-06-20T03:32:06.346Z,59.42
2019-06-20T03:34:38.276Z,59.98
2019-06-20T03:37:09.058Z,60.78
2019-06-20T03:39:40.564Z,61.44
2019-06-20T03:42:10.972Z,61.98
2019-06-20T03:44:41.273Z,62.80
2019-06-20T03:47:11.556Z,63.25
2019-06-20T03:49:41.755Z,63.66
2019-06-20T03:52:27.839Z,64.37
2019-06-20T03:54:58.057Z,64.68
2019-06-20T03:57:28.337Z,65.26
2019-06-20T03:59:58.674Z,65.17
2019-06-20T04:02:28.906Z,65.51
2019-06-20T04:04:59.413Z,65.43
2019-06-20T04:07:29.668Z,66.29
2019-06-20T04:09:59.962Z,66.62
2019-06-20T04:12:30.233Z,66.32
2019-06-20T04:15:00.505Z,67.17
2019-06-20T04:17:30.874Z,67.49
2019-06-20T04:20:01.150Z,68.30
2019-06-20T04:22:31.477Z,68.43
2019-06-20T04:25:01.799Z,68.41
2019-06-20T04:27:32.220Z,68.24
2019-06-20T04:30:02.492Z,68.43
2019-06-20T04:32:35.066Z,69.00
2019-06-20T04:35:07.072Z,69.18
2019-06-20T04:37:37.291Z,68.83
2019-06-20T04:40:07.590Z,68.56
2019-06-20T04:42:37.890Z,69.53
2019-06-20T04:45:17.581Z,69.41
2019-06-20T04:47:47.815Z,68.08
2019-06-20T04:50:18.096Z,68.47
2019-06-20T04:52:48.373Z,68.59
2019-06-20T04:55:18.640Z,70.12
2019-06-20T04:57:49.156Z,70.05
2019-06-20T05:00:19.467Z,70.70
2019-06-20T05:02:49.726Z,69.60
2019-06-20T05:05:20.029Z,69.44
2019-06-20T05:07:50.426Z,69.51
2019-06-20T05:10:21.773Z,68.62
2019-06-20T05:12:56.108Z,68.54
2019-06-20T05:15:26.759Z,68.39
2019-06-20T05:17:57.006Z,69.02
2019-06-20T05:20:27.323Z,69.86
2019-06-20T05:22:57.599Z,68.41
2019-06-20T05:25:28.171Z,68.23
2019-06-20T05:27:58.438Z,68.76
2019-06-20T05:30:28.874Z,69.02
2019-06-20T05:33:09.302Z,68.26
2019-06-20T05:35:39.559Z,68.57
2019-06-20T05:38:09.866Z,68.98
2019-06-20T05:40:40.119Z,68.97
2019-06-20T05:43:10.390Z,68.68
2019-06-20T05:45:44.469Z,68.65
2019-06-20T05:48:14.086Z,68.41
2019-06-20T05:50:45.524Z,68.29
2019-06-20T05:53:15.818Z,68.62
2019-06-20T05:55:46.112Z,68.18
2019-06-20T05:58:17.671Z,67.80
2019-06-20T06:00:47.871Z,67.52
2019-06-20T06:03:18.974Z,67.81
2019-06-20T06:05:49.205Z,67.70
2019-06-20T06:08:19.518Z,67.56
2019-06-20T06:10:49.763Z,67.04
2019-06-20T06:13:20.639Z,66.86
2019-06-20T06:15:50.991Z,66.69
2019-06-20T06:18:21.275Z,66.22
2019-06-20T06:20:51.585Z,65.73
2019-06-20T06:23:21.849Z,65.28
2019-06-20T06:25:58.113Z,64.73
2019-06-20T06:28:28.400Z,64.33
2019-06-20T06:30:58.722Z,63.92
2019-06-20T06:33:28.917Z,64.82
2019-06-20T06:35:59.206Z,63.63
2019-06-20T06:38:29.431Z,63.26
2019-06-20T06:41:01.026Z,62.86
2019-06-20T06:43:32.321Z,63.44
2019-06-20T06:46:03.757Z,62.83
2019-06-20T06:48:33.983Z,63.59
2019-06-20T06:51:04.266Z,63.38
2019-06-20T06:53:34.697Z,62.99
2019-06-20T06:56:05.425Z,63.72
2019-06-20T06:58:35.711Z,63.00
2019-06-20T07:01:09.986Z,62.97
2019-06-20T07:03:37.926Z,62.98
2019-06-20T07:06:08.143Z,63.03
2019-06-20T07:08:41.902Z,63.01
2019-06-20T07:11:12.061Z,63.67
2019-06-20T07:13:42.377Z,63.58
2019-06-20T07:16:12.617Z,63.92
2019-06-20T07:18:42.836Z,63.98
2019-06-20T07:21:13.112Z,62.54
2019-06-20T07:23:43.381Z,62.85
2019-06-20T07:26:14.824Z,63.35
2019-06-20T07:28:45.101Z,63.65
2019-06-20T07:31:15.347Z,62.39
2019-06-20T07:33:45.623Z,60.28
2019-06-20T07:36:25.637Z,59.80
2019-06-20T07:38:55.963Z,58.61
2019-06-20T07:41:26.249Z,57.75
2019-06-20T07:43:56.708Z,55.58
2019-06-20T07:46:26.915Z,55.28
2019-06-20T07:48:57.189Z,53.13
2019-06-20T07:51:29.826Z,54.21
2019-06-20T07:54:00.442Z,54.54
2019-06-20T07:56:30.697Z,53.82
2019-06-20T07:59:00.908Z,52.75
2019-06-20T08:01:31.157Z,51.39
2019-06-20T08:04:05.100Z,51.79
2019-06-20T08:06:35.374Z,52.17
2019-06-20T08:09:08.081Z,50.81
2019-06-20T08:11:38.309Z,50.85
2019-06-20T08:14:08.520Z,51.28
2019-06-20T08:16:38.750Z,51.20
2019-06-20T08:19:16.451Z,51.39
2019-06-20T08:21:46.783Z,51.50
2019-06-20T08:24:17.006Z,50.76
2019-06-20T08:26:47.257Z,50.59
2019-06-20T08:29:21.092Z,49.94
2019-06-20T08:31:49.842Z,49.71
2019-06-20T08:34:21.036Z,50.38
2019-06-20T08:36:51.335Z,50.96
2019-06-20T08:39:21.619Z,50.85
2019-06-20T08:41:51.845Z,52.35
2019-06-20T08:44:22.093Z,52.03
2019-06-20T08:47:01.134Z,53.17
2019-06-20T08:49:31.963Z,53.17
2019-06-20T08:52:03.434Z,52.78
2019-06-20T08:54:33.916Z,53.43
2019-06-20T08:57:06.029Z,52.06
2019-06-20T08:59:41.437Z,52.07
2019-06-20T09:02:11.689Z,50.20
2019-06-20T09:04:42.062Z,49.76
2019-06-20T09:07:12.276Z,48.86
2019-06-20T09:09:42.571Z,50.42
2019-06-20T09:12:12.849Z,50.21
2019-06-20T09:14:46.908Z,49.02
2019-06-20T09:17:17.141Z,50.15
2019-06-20T09:19:47.421Z,49.16
2019-06-20T09:22:17.660Z,49.33
2019-06-20T09:24:47.926Z,50.38
2019-06-20T09:30:25.860Z,47.45
2019-06-20T09:32:56.253Z,47.58
2019-06-20T09:35:26.617Z,47.48
2019-06-20T09:37:57.157Z,45.58
2019-06-20T09:40:28.891Z,44.24
2019-06-20T09:42:59.258Z,45.46
2019-06-20T09:45:29.894Z,44.55
2019-06-20T09:48:00.130Z,45.76
2019-06-20T09:50:31.438Z,43.56
2019-06-20T09:53:01.619Z,42.84
2019-06-20T09:55:53.724Z,42.67
2019-06-20T09:58:24.020Z,43.77
2019-06-20T10:00:55.104Z,41.06
2019-06-20T10:03:25.599Z,39.83
2019-06-20T10:05:56.665Z,39.51
2019-06-20T10:08:27.373Z,39.05
2019-06-20T10:10:57.671Z,38.91
2019-06-20T10:13:27.934Z,38.55
2019-06-20T10:15:58.286Z,38.04
2019-06-20T10:18:28.510Z,40.09
2019-06-20T10:20:58.853Z,39.58
2019-06-20T10:23:29.145Z,38.17
2019-06-20T10:25:59.404Z,38.42
2019-06-20T10:28:29.687Z,38.31
2019-06-20T10:30:59.920Z,38.25
2019-06-20T10:33:30.250Z,39.04
2019-06-20T10:36:00.940Z,39.30
2019-06-20T10:38:31.260Z,37.85
2019-06-20T10:41:01.559Z,37.02
2019-06-20T10:43:31.914Z,37.25
2019-06-20T10:46:02.224Z,35.78
2019-06-20T10:48:32.478Z,36.76
2019-06-20T10:51:22.154Z,36.99
2019-06-20T10:53:53.391Z,39.09
2019-06-20T10:56:23.786Z,36.57
2019-06-20T10:58:54.137Z,37.68
2019-06-20T11:01:24.374Z,37.44
2019-06-20T11:03:54.655Z,38.75
2019-06-20T11:06:25.015Z,38.23
2019-06-20T11:08:55.232Z,38.33
2019-06-20T11:11:25.586Z,38.18
2019-06-20T11:13:55.896Z,36.75
2019-06-20T11:16:26.165Z,38.49
2019-06-20T11:18:58.843Z,36.75
2019-06-20T11:21:29.088Z,37.16
2019-06-20T11:23:59.308Z,38.22
2019-06-20T11:26:29.487Z,36.60
2019-06-20T11:28:59.772Z,36.46
2019-06-20T11:31:47.794Z,37.95
2019-06-20T11:34:17.728Z,36.35
2019-06-20T11:36:48.068Z,35.55
2019-06-20T11:39:18.344Z,37.97
2019-06-20T11:41:48.600Z,36.60
2019-06-20T11:44:18.871Z,35.90
2019-06-20T11:47:01.435Z,36.62
2019-06-20T11:49:31.804Z,35.10
2019-06-20T11:52:02.115Z,37.58
2019-06-20T11:54:33.312Z,36.51
2019-06-20T11:57:04.266Z,35.49
2019-06-20T11:59:35.005Z,35.61
2019-06-20T12:02:05.579Z,35.57
2019-06-20T12:04:35.851Z,34.68
2019-06-20T12:07:06.037Z,35.54
2019-06-20T12:09:36.619Z,34.68
2019-06-20T12:12:06.861Z,35.77
2019-06-20T12:14:39.713Z,37.21
2019-06-20T12:17:10.349Z,37.73
2019-06-20T12:19:40.872Z,38.01
2019-06-20T12:22:12.566Z,38.72
2019-06-20T12:24:43.011Z,39.99
2019-06-20T12:27:13.294Z,38.96
2019-06-20T12:29:50.784Z,38.09
2019-06-20T12:32:22.081Z,35.77
2019-06-20T12:34:52.438Z,36.77
2019-06-20T12:37:22.728Z,37.62
2019-06-20T12:39:53.030Z,38.47
2019-06-20T12:42:24.698Z,38.66
2019-06-20T12:44:55.132Z,37.23
2019-06-20T12:47:25.480Z,37.34
2019-06-20T12:49:55.741Z,38.47
2019-06-20T12:52:25.985Z,38.08
2019-06-20T12:54:56.362Z,40.36
2019-06-20T12:57:28.061Z,38.42
2019-06-20T12:59:58.407Z,38.99
2019-06-20T13:02:28.982Z,39.18
2019-06-20T13:04:59.245Z,38.65
2019-06-20T13:07:29.582Z,39.39
2019-06-20T13:10:00.160Z,39.52
2019-06-20T13:12:30.429Z,40.13
2019-06-20T13:15:00.767Z,40.34
2019-06-20T13:17:31.384Z,39.96
2019-06-20T13:20:01.624Z,40.64
2019-06-20T13:22:31.970Z,37.88
2019-06-20T13:25:02.210Z,38.47
2019-06-20T13:27:32.461Z,38.13
2019-06-20T13:30:21.099Z,40.10
2019-06-20T13:32:51.516Z,38.97
2019-06-20T13:35:21.731Z,39.12
2019-06-20T13:37:52.003Z,37.78
2019-06-20T13:40:22.310Z,38.10
2019-06-20T13:42:54.685Z,38.09
2019-06-20T13:45:27.419Z,37.60
2019-06-20T13:47:57.928Z,38.34
2019-06-20T13:50:29.806Z,38.29
2019-06-20T13:53:00.076Z,38.97
2019-06-20T13:55:30.294Z,36.64
2019-06-20T13:58:05.046Z,36.35
2019-06-20T14:00:35.286Z,36.74
2019-06-20T14:03:05.554Z,36.70
2019-06-20T14:05:35.778Z,35.76
2019-06-20T14:08:06.064Z,35.01
2019-06-20T14:10:36.704Z,35.20
2019-06-20T14:13:18.753Z,35.71
2019-06-20T14:15:38.901Z,35.70
2019-06-20T14:18:09.150Z,34.64
2019-06-20T14:20:39.379Z,34.38
2019-06-20T14:23:10.942Z,33.59
2019-06-20T14:25:42.440Z,34.10
2019-06-20T14:28:13.235Z,34.95
2019-06-20T14:30:45.014Z,35.00
2019-06-20T14:33:15.530Z,34.75
2019-06-20T14:35:47.398Z,33.97
2019-06-20T14:38:18.166Z,33.66
2019-06-20T14:40:49.888Z,31.90
2019-06-20T14:43:20.367Z,32.68
2019-06-20T14:45:50.825Z,32.42
2019-06-20T14:48:21.126Z,32.14
2019-06-20T14:51:01.563Z,32.10
2019-06-20T14:53:31.873Z,31.71
2019-06-20T14:56:02.125Z,31.62
2019-06-20T14:58:33.426Z,32.24
2019-06-20T15:01:03.739Z,32.55
2019-06-20T15:03:33.999Z,33.33
2019-06-20T15:06:04.568Z,33.81
2019-06-20T15:08:34.802Z,34.63
2019-06-20T15:11:05.080Z,33.57
2019-06-20T15:13:35.285Z,34.48
2019-06-20T15:16:09.874Z,33.40
2019-06-20T15:18:40.502Z,33.40
2019-06-20T15:21:10.748Z,33.49
2019-06-20T15:23:41.149Z,32.89
2019-06-20T15:26:11.505Z,32.21
2019-06-20T15:28:41.755Z,32.26
2019-06-20T15:31:11.964Z,31.36
2019-06-20T15:33:43.702Z,31.85
2019-06-20T15:36:14.131Z,30.70
2019-06-20T15:38:44.411Z,32.65
2019-06-20T15:41:14.729Z,32.66
2019-06-20T15:43:44.930Z,32.25
2019-06-20T15:46:19.243Z,32.78
2019-06-20T15:48:49.538Z,33.33
2019-06-20T15:51:20.180Z,32.56
2019-06-20T15:53:50.436Z,33.14
2019-06-20T15:56:20.796Z,33.31
2019-06-20T15:58:52.111Z,33.75
2019-06-20T16:01:24.738Z,33.52
2019-06-20T16:03:55.057Z,34.72
2019-06-20T16:06:27.704Z,35.00
2019-06-20T16:08:58.005Z,35.99
2019-06-20T16:11:28.292Z,37.21
2019-06-20T16:13:59.964Z,36.39
2019-06-20T16:16:31.227Z,37.20
2019-06-20T16:19:01.498Z,37.98
2019-06-20T16:21:32.992Z,39.29
2019-06-20T16:24:03.245Z,39.52
2019-06-20T16:26:33.520Z,40.76
2019-06-20T16:29:03.869Z,41.01
2019-06-20T16:31:34.175Z,40.57
2019-06-20T16:34:05.742Z,41.22
2019-06-20T16:37:09.008Z,40.78
2019-06-20T16:39:28.259Z,41.69
2019-06-20T16:41:58.493Z,41.79
2019-06-20T16:44:28.699Z,40.64
2019-06-20T16:46:59.274Z,41.62
2019-06-20T16:49:29.534Z,41.15
2019-06-20T16:51:59.798Z,41.18
2019-06-20T16:54:30.043Z,42.09
2019-06-20T16:57:00.318Z,40.97
2019-06-20T16:59:30.563Z,41.84
2019-06-20T17:02:10.223Z,42.64
2019-06-20T17:04:40.490Z,42.92
2019-06-20T17:07:10.751Z,42.66
2019-06-20T17:09:41.028Z,43.29
2019-06-20T17:12:11.347Z,43.23
2019-06-20T17:14:47.922Z,43.36
2019-06-20T17:17:18.168Z,43.91
2019-06-20T17:19:48.941Z,44.16
2019-06-20T17:22:19.174Z,44.26
2019-06-20T17:24:49.410Z,44.18
2019-06-20T17:27:20.337Z,44.89
2019-06-20T17:29:50.618Z,44.84
2019-06-20T17:32:20.882Z,46.16
2019-06-20T17:34:51.148Z,44.72
2019-06-20T17:37:23.882Z,47.01
2019-06-20T17:39:54.504Z,46.75
2019-06-20T17:42:24.764Z,45.21
2019-06-20T17:44:55.026Z,45.15
2019-06-20T17:47:25.278Z,46.55
2019-06-20T17:49:55.644Z,46.26
2019-06-20T17:52:25.968Z,46.68
2019-06-20T17:55:03.693Z,47.25
2019-06-20T17:57:33.910Z,47.89
2019-06-20T18:00:04.133Z,48.41
2019-06-20T18:02:34.551Z,49.51
2019-06-20T18:05:05.984Z,50.09
2019-06-20T18:07:53.841Z,49.80
2019-06-20T18:10:24.205Z,50.33
2019-06-20T18:12:54.478Z,50.96
2019-06-20T18:15:25.287Z,51.27
2019-06-20T18:17:55.536Z,51.23
2019-06-20T18:20:27.014Z,51.96
2019-06-20T18:22:57.363Z,52.08
2019-06-20T18:25:27.621Z,51.81
2019-06-20T18:27:57.934Z,52.11
2019-06-20T18:30:36.530Z,51.19
2019-06-20T18:33:06.807Z,50.51
2019-06-20T18:35:39.579Z,51.18
2019-06-20T18:38:09.896Z,51.36
2019-06-20T18:40:40.473Z,51.08
2019-06-20T18:43:11.058Z,51.59
2019-06-20T18:45:41.450Z,52.26
2019-06-20T18:48:13.326Z,51.98
2019-06-20T18:50:43.991Z,52.03
2019-06-20T18:53:17.344Z,52.54
2019-06-20T18:55:49.140Z,53.37
2019-06-20T18:58:19.706Z,53.13
2019-06-20T19:00:50.175Z,52.47
2019-06-20T19:03:21.466Z,52.46
2019-06-20T19:05:53.106Z,52.77
2019-06-20T19:08:23.389Z,52.61
2019-06-20T19:10:54.870Z,53.17
2019-06-20T19:13:25.313Z,53.14
2019-06-20T19:15:55.976Z,53.36
2019-06-20T19:18:26.508Z,53.10
2019-06-20T19:20:56.987Z,52.71
2019-06-20T19:23:27.378Z,53.63
2019-06-20T19:25:57.840Z,54.60
2019-06-20T19:28:28.442Z,54.04
2019-06-20T19:33:29.315Z,54.61
2019-06-20T19:35:59.773Z,55.26
2019-06-20T19:38:30.754Z,55.34
2019-06-20T19:41:01.299Z,55.75
2019-06-20T19:43:35.728Z,55.22
2019-06-20T19:46:06.060Z,55.95
2019-06-20T19:48:36.961Z,56.59
2019-06-20T19:51:09.377Z,56.82
2019-06-20T19:53:39.704Z,57.48
2019-06-20T19:56:10.117Z,57.31
2019-06-20T19:58:41.042Z,57.82
2019-06-20T20:01:11.676Z,58.35
2019-06-20T20:03:41.935Z,58.50
2019-06-20T20:06:12.152Z,59.06
2019-06-20T20:08:42.404Z,59.49
2019-06-20T20:11:12.930Z,59.83
2019-06-20T20:13:43.296Z,59.51
2019-06-20T20:16:13.577Z,60.44
2019-06-20T20:18:43.794Z,60.99
2019-06-20T20:21:14.099Z,61.25
2019-06-20T20:23:44.317Z,61.10
2019-06-20T20:26:15.930Z,61.38
2019-06-20T20:28:46.573Z,61.79
2019-06-20T20:31:16.958Z,62.74
2019-06-20T20:33:47.222Z,62.50
2019-06-20T20:36:24.860Z,63.41
2019-06-20T20:38:49.406Z,62.86
2019-06-20T20:41:19.688Z,63.66
2019-06-20T20:43:49.928Z,63.84
2019-06-20T20:46:20.127Z,64.39
2019-06-20T20:48:50.391Z,64.52
2019-06-20T20:51:31.997Z,64.58
2019-06-20T20:54:02.281Z,65.04
2019-06-20T20:56:33.777Z,65.36
2019-06-20T20:59:04.047Z,65.53
2019-06-20T21:01:35.590Z,65.30
2019-06-20T21:04:06.154Z,66.47
2019-06-20T21:06:38.729Z,66.42
2019-06-20T21:09:09.334Z,66.64
2019-06-20T21:11:40.586Z,66.54
2019-06-20T21:14:10.803Z,66.55
2019-06-20T21:16:41.126Z,66.78
2019-06-20T21:19:11.677Z,67.12
2019-06-20T21:21:41.948Z,67.30
2019-06-20T21:24:12.185Z,67.22
2019-06-20T21:26:49.399Z,67.16
2019-06-20T21:29:14.340Z,67.28
2019-06-20T21:31:45.670Z,66.98
2019-06-20T21:34:17.000Z,66.60
2019-06-20T21:36:47.282Z,66.73
2019-06-20T21:39:17.652Z,66.82
2019-06-20T21:41:47.941Z,67.01
2019-06-20T21:44:18.195Z,67.27
2019-06-20T21:46:48.894Z,67.79
2019-06-20T21:49:19.082Z,67.43
2019-06-20T21:51:49.351Z,67.78
2019-06-20T21:54:19.578Z,67.86
2019-06-20T21:56:49.935Z,68.17
2019-06-20T21:59:22.685Z,68.55
2019-06-20T22:01:52.943Z,69.07
2019-06-20T22:04:23.247Z,68.88
2019-06-20T22:06:53.578Z,69.67
2019-06-20T22:09:24.718Z,69.19
2019-06-20T22:11:55.035Z,69.20
2019-06-20T22:14:48.676Z,69.14
2019-06-20T22:17:18.931Z,69.25
2019-06-20T22:19:49.263Z,69.36
2019-06-20T22:22:19.470Z,69.91
2019-06-20T22:24:49.764Z,70.21
2019-06-20T22:27:20.352Z,70.77
2019-06-20T22:29:50.999Z,71.16
2019-06-20T22:32:21.260Z,71.22
2019-06-20T22:34:51.549Z,70.93
2019-06-20T22:37:21.769Z,70.66
2019-06-20T22:39:52.004Z,70.16
2019-06-20T22:42:22.615Z,71.52
2019-06-20T22:44:53.961Z,71.60
2019-06-20T22:47:24.271Z,71.05
2019-06-20T22:49:54.599Z,71.70
2019-06-20T22:52:24.962Z,72.33
2019-06-20T22:54:55.180Z,71.59
2019-06-20T22:57:31.808Z,71.93
2019-06-20T23:00:02.087Z,72.86
2019-06-20T23:02:32.438Z,72.40
2019-06-20T23:05:02.635Z,73.08
2019-06-20T23:07:32.914Z,72.90
2019-06-20T23:10:11.437Z,73.49
2019-06-20T23:12:41.855Z,73.24
2019-06-20T23:15:12.193Z,73.38
2019-06-20T23:17:42.450Z,74.64
2019-06-20T23:20:12.753Z,73.69
2019-06-20T23:22:43.038Z,74.61
2019-06-20T23:25:13.555Z,74.85
2019-06-20T23:27:43.785Z,74.96
2019-06-20T23:30:15.610Z,74.44
2019-06-20T23:32:45.830Z,75.15
2019-06-20T23:35:16.118Z,76.13
2019-06-20T23:37:46.648Z,75.90
2019-06-20T23:40:16.884Z,75.93
2019-06-20T23:42:47.100Z,75.99
2019-06-20T23:45:17.898Z,76.00
2019-06-20T23:47:48.123Z,76.06
2019-06-20T23:50:18.748Z,76.88
2019-06-20T23:52:56.459Z,77.99
2019-06-20T23:55:26.720Z,77.02
2019-06-20T23:57:56.963Z,77.21
